Terminal Aerodrome Forecast
Issued by NWS

Home | Current Version | Previous Version | Text Only | Print | Product List | Glossary On
Versions: 1 2 3 4 5 6 7 8 9 10 11 12 13 14 15 16 17 18 19 20 21 22 23 24 25
000
FTUS44 KLIX 230500
TAFHDC
TAF
KHDC 230525Z 2306/2406 11008KT P6SM OVC009
     FM230900 14009KT 3SM -SHRA OVC008
      TEMPO 2310/2314 VRB35KT 1SM +TSRA BKN008 OVC015CB
     FM231400 18012KT 3SM -SHRA OVC015
     FM231800 22013KT P6SM SCT025=

USA.gov is the U.S. government's official web portal to all federal, state and local government web resources and services.